createdAt,value
2023-02-25T00:00:55.008Z,95273.66
2023-02-25T00:03:23.745Z,95266.34
2023-02-25T00:05:56.820Z,95269.47
2023-02-25T00:08:26.053Z,95278.16
2023-02-25T00:10:58.765Z,95275.69
2023-02-25T00:13:26.799Z,95283.63
2023-02-25T00:16:03.172Z,95285.97
2023-02-25T00:18:31.981Z,95278.22
2023-02-25T00:21:04.987Z,95226.81
2023-02-25T00:23:34.272Z,95263.78
2023-02-25T00:26:02.999Z,95293.81
2023-02-25T00:28:33.112Z,95290.13
2023-02-25T00:31:01.334Z,95281.69
2023-02-25T00:33:31.602Z,95301.63
2023-02-25T00:36:03.341Z,95305.84
2023-02-25T00:38:31.480Z,95247.34
2023-02-25T00:41:08.956Z,95315.66
2023-02-25T00:43:42.613Z,95302.38
2023-02-25T00:46:13.876Z,95300.59
2023-02-25T00:48:42.151Z,95292.78
2023-02-25T00:51:14.705Z,95289.91
2023-02-25T00:53:43.033Z,95273.59
2023-02-25T00:56:16.623Z,95295.84
2023-02-25T00:58:45.101Z,95298.66
2023-02-25T01:01:23.445Z,95272.97
2023-02-25T01:03:57.302Z,95299.41
2023-02-25T01:06:25.559Z,95310.91
2023-02-25T01:08:54.843Z,95180.47
2023-02-25T01:11:27.728Z,95307.22
2023-02-25T01:13:56.299Z,95287.38
2023-02-25T01:16:27.486Z,95235.47
2023-02-25T01:18:57.583Z,95230.06
2023-02-25T01:21:27.739Z,95308.69
2023-02-25T01:23:58.886Z,95318.41
2023-02-25T01:26:29.887Z,95317.50
2023-02-25T01:28:58.412Z,95335.66
2023-02-25T01:31:29.521Z,95337.56
2023-02-25T01:33:58.621Z,95343.28
2023-02-25T01:36:32.301Z,95336.50
2023-02-25T01:39:01.943Z,95331.78
2023-02-25T01:41:32.257Z,95341.06
2023-02-25T01:44:12.406Z,95340.59
2023-02-25T01:46:44.119Z,95274.44
2023-02-25T01:49:14.841Z,95259.53
2023-02-25T01:51:47.514Z,95321.50
2023-02-25T01:54:19.341Z,95289.00
2023-02-25T01:56:51.638Z,95307.44
2023-02-25T01:59:29.169Z,95299.19
2023-02-25T02:02:00.342Z,95260.31
2023-02-25T02:04:28.303Z,95314.25
2023-02-25T02:06:56.939Z,95318.44
2023-02-25T02:09:27.962Z,95318.97
2023-02-25T02:12:07.105Z,95321.59
2023-02-25T02:14:44.386Z,95332.13
2023-02-25T02:17:21.750Z,95317.38
2023-02-25T02:20:07.215Z,95314.19
2023-02-25T02:22:40.229Z,95314.88
2023-02-25T02:25:27.072Z,95309.03
2023-02-25T02:28:20.987Z,95336.63
2023-02-25T02:31:14.415Z,95335.88
2023-02-25T02:33:50.712Z,95338.19
2023-02-25T02:36:25.140Z,95322.00
2023-02-25T02:38:58.404Z,95348.50
2023-02-25T02:41:34.122Z,95243.25
2023-02-25T02:44:06.969Z,95335.16
2023-02-25T02:46:39.465Z,95332.06
2023-02-25T02:49:12.349Z,95340.88
2023-02-25T02:51:45.211Z,95333.97
2023-02-25T02:54:15.185Z,95355.94
2023-02-25T02:56:48.751Z,95344.75
2023-02-25T02:59:20.809Z,95335.81
2023-02-25T03:01:57.519Z,95347.41
2023-02-25T03:04:29.139Z,95342.31
2023-02-25T03:07:01.261Z,95338.81
2023-02-25T03:09:37.297Z,95334.22
2023-02-25T03:12:11.158Z,95351.09
2023-02-25T03:14:39.632Z,95353.84
2023-02-25T03:17:15.064Z,95354.28
2023-02-25T03:19:46.172Z,95345.66
2023-02-25T03:22:18.176Z,95358.78
2023-02-25T03:24:50.066Z,95356.13
2023-02-25T03:27:27.828Z,95354.56
2023-02-25T03:29:58.504Z,95357.16
2023-02-25T03:32:30.959Z,95360.72
2023-02-25T03:35:04.391Z,95364.56
2023-02-25T03:37:33.999Z,95363.38
2023-02-25T03:40:10.812Z,95366.03
2023-02-25T03:42:44.186Z,95363.28
2023-02-25T03:45:15.597Z,95350.22
2023-02-25T03:47:45.006Z,95366.09
2023-02-25T03:50:17.588Z,95354.72
2023-02-25T03:52:45.459Z,95344.13
2023-02-25T03:55:24.413Z,95358.63
2023-02-25T03:57:53.084Z,95364.13
2023-02-25T04:00:23.445Z,95335.91
2023-02-25T04:02:55.995Z,95306.66
2023-02-25T04:05:28.121Z,95376.31
2023-02-25T04:07:58.617Z,95419.31
2023-02-25T04:10:30.845Z,95385.31
2023-02-25T04:12:59.057Z,95390.22
2023-02-25T04:15:29.511Z,95397.88
2023-02-25T04:17:58.723Z,95398.59
2023-02-25T04:20:30.436Z,95398.84
2023-02-25T04:22:58.324Z,95395.94
2023-02-25T04:25:26.903Z,95396.28
2023-02-25T04:27:54.750Z,95402.41
2023-02-25T04:30:26.899Z,95389.03
2023-02-25T04:32:58.587Z,95387.00
2023-02-25T04:35:30.327Z,95409.94
2023-02-25T04:38:00.990Z,95400.44
2023-02-25T04:40:29.095Z,95401.81
2023-02-25T04:42:59.880Z,95365.34
2023-02-25T04:45:29.395Z,95404.53
2023-02-25T04:47:58.108Z,95404.31
2023-02-25T04:50:27.713Z,95396.31
2023-02-25T04:52:55.862Z,95397.19
2023-02-25T04:55:25.795Z,95400.53
2023-02-25T04:57:53.676Z,95396.56
2023-02-25T05:00:24.363Z,95353.88
2023-02-25T05:02:52.942Z,95397.56
2023-02-25T05:05:26.373Z,95382.31
2023-02-25T05:07:58.810Z,95115.31
2023-02-25T05:10:27.064Z,95400.31
2023-02-25T05:12:57.097Z,95354.06
2023-02-25T05:15:28.258Z,95353.41
2023-02-25T05:17:56.077Z,95333.78
2023-02-25T05:20:27.087Z,95401.03
2023-02-25T05:22:56.714Z,95403.41
2023-02-25T05:25:25.708Z,95393.81
2023-02-25T05:27:56.026Z,95394.34
2023-02-25T05:30:23.902Z,95378.84
2023-02-25T05:32:54.585Z,95392.56
2023-02-25T05:35:22.527Z,95389.00
2023-02-25T05:37:52.111Z,95376.81
2023-02-25T05:40:23.910Z,95391.03
2023-02-25T05:42:59.876Z,95398.41
2023-02-25T05:45:27.971Z,95355.81
2023-02-25T05:47:57.446Z,95388.38
2023-02-25T05:50:25.447Z,95374.47
2023-02-25T05:52:54.310Z,95390.53
2023-02-25T05:55:24.235Z,95381.78
2023-02-25T05:57:52.114Z,95392.63
2023-02-25T06:00:21.620Z,95391.56
2023-02-25T06:02:50.833Z,95369.75
2023-02-25T06:05:21.627Z,95396.53
2023-02-25T06:07:54.164Z,95392.63
2023-02-25T06:10:23.403Z,95393.16
2023-02-25T06:12:58.450Z,95340.03
2023-02-25T06:15:29.167Z,95365.81
2023-02-25T06:17:58.231Z,95414.72
2023-02-25T06:20:30.884Z,95421.81
2023-02-25T06:22:59.652Z,95414.44
2023-02-25T06:25:30.329Z,95417.00
2023-02-25T06:27:58.238Z,95423.66
2023-02-25T06:30:28.332Z,95431.53
2023-02-25T06:32:57.698Z,95384.69
2023-02-25T06:35:26.018Z,95427.88
2023-02-25T06:37:57.725Z,95418.63
2023-02-25T06:40:33.574Z,95380.47
2023-02-25T06:43:02.529Z,95426.25
2023-02-25T06:45:31.102Z,95433.84
2023-02-25T06:48:03.995Z,95438.84
2023-02-25T06:50:34.338Z,95418.47
2023-02-25T06:53:02.278Z,95428.03
2023-02-25T06:55:30.538Z,95439.69
2023-02-25T06:58:01.079Z,95385.38
2023-02-25T07:00:29.140Z,95426.88
2023-02-25T07:02:57.326Z,95440.84
2023-02-25T07:05:29.040Z,95452.47
2023-02-25T07:07:56.865Z,95426.56
2023-02-25T07:10:25.099Z,95456.88
2023-02-25T07:12:55.756Z,95453.13
2023-02-25T07:15:25.001Z,95456.47
2023-02-25T07:17:52.923Z,95455.19
2023-02-25T07:20:25.397Z,95419.75
2023-02-25T07:22:53.239Z,95463.13
2023-02-25T07:25:26.389Z,95449.69
2023-02-25T07:27:55.003Z,95458.59
2023-02-25T07:30:31.328Z,95464.34
2023-02-25T07:33:03.001Z,95436.25
2023-02-25T07:35:31.250Z,95467.53
2023-02-25T07:38:02.085Z,95470.13
2023-02-25T07:40:29.977Z,95467.34
2023-02-25T07:42:59.220Z,95499.38
2023-02-25T07:45:28.437Z,95439.75
2023-02-25T07:47:58.419Z,95453.28
2023-02-25T07:50:28.223Z,95443.31
2023-02-25T07:53:00.898Z,95438.44
2023-02-25T07:55:34.373Z,95440.81
2023-02-25T07:58:09.292Z,95451.91
2023-02-25T08:00:39.605Z,95441.34
2023-02-25T08:03:09.825Z,95445.59
2023-02-25T08:05:40.190Z,95418.84
2023-02-25T08:08:10.767Z,95437.88
2023-02-25T08:10:39.069Z,95437.47
2023-02-25T08:13:14.249Z,95438.50
2023-02-25T08:15:50.613Z,95413.13
2023-02-25T08:18:19.790Z,95441.16
2023-02-25T08:20:48.294Z,95431.25
2023-02-25T08:23:16.649Z,95448.81
2023-02-25T08:25:44.978Z,95452.59
2023-02-25T08:28:14.028Z,95462.34
2023-02-25T08:30:43.838Z,95453.38
2023-02-25T08:33:11.868Z,95459.75
2023-02-25T08:35:39.749Z,95462.69
2023-02-25T08:38:08.052Z,95413.69
2023-02-25T08:40:35.890Z,95461.34
2023-02-25T08:43:11.296Z,95375.78
2023-02-25T08:45:47.162Z,95476.78
2023-02-25T08:48:17.086Z,95465.44
2023-02-25T08:50:49.796Z,95459.72
2023-02-25T08:53:17.710Z,95404.34
2023-02-25T08:55:51.051Z,95444.41
2023-02-25T08:58:19.214Z,95419.28
2023-02-25T09:00:50.480Z,95333.50
2023-02-25T09:03:19.038Z,95452.97
2023-02-25T09:05:52.889Z,95456.25
2023-02-25T09:08:21.055Z,95449.50
2023-02-25T09:10:55.092Z,95457.22
2023-02-25T09:13:26.750Z,95446.38
2023-02-25T09:16:00.139Z,95441.22
2023-02-25T09:18:28.683Z,95425.88
2023-02-25T09:20:59.541Z,95439.19
2023-02-25T09:23:29.691Z,95386.78
2023-02-25T09:26:02.989Z,95423.28
2023-02-25T09:28:32.669Z,95392.09
2023-02-25T09:31:02.606Z,95424.06
2023-02-25T09:33:38.396Z,95420.84
2023-02-25T09:36:09.068Z,95434.59
2023-02-25T09:38:37.129Z,95420.38
2023-02-25T09:41:11.030Z,95422.56
2023-02-25T09:43:42.498Z,95428.19
2023-02-25T09:46:19.006Z,95388.31
2023-02-25T09:48:54.100Z,95430.03
2023-02-25T09:51:24.730Z,95426.66
2023-02-25T09:53:56.308Z,95431.94
2023-02-25T09:56:28.344Z,95415.31
2023-02-25T09:58:58.421Z,95408.56
2023-02-25T10:01:34.988Z,95415.69
2023-02-25T10:04:09.414Z,95414.72
2023-02-25T10:06:39.554Z,95414.44
2023-02-25T10:09:17.076Z,95417.25
2023-02-25T10:11:53.545Z,95413.13
2023-02-25T10:14:48.033Z,95400.97
2023-02-25T10:17:23.866Z,95426.66
2023-02-25T10:20:03.113Z,95425.25
2023-02-25T10:22:40.373Z,95435.19
2023-02-25T10:25:17.022Z,95426.09
2023-02-25T10:27:48.147Z,95409.19
2023-02-25T10:30:21.206Z,95423.41
2023-02-25T10:32:51.813Z,95426.25
2023-02-25T10:35:24.166Z,95415.19
2023-02-25T10:37:55.018Z,95419.69
2023-02-25T10:40:24.894Z,95408.84
2023-02-25T10:42:57.381Z,95396.09
2023-02-25T10:45:31.466Z,95411.34
2023-02-25T10:48:05.887Z,95410.66
2023-02-25T10:50:45.549Z,95404.16
2023-02-25T10:53:17.030Z,95399.44
2023-02-25T10:55:54.866Z,95402.97
2023-02-25T10:58:47.812Z,95402.13
2023-02-25T11:01:20.400Z,95401.03
2023-02-25T11:03:59.366Z,95366.47
2023-02-25T11:06:29.380Z,95402.03
2023-02-25T11:09:02.100Z,95396.56
2023-02-25T11:11:32.680Z,95401.56
2023-02-25T11:14:03.538Z,95404.44
2023-02-25T11:16:36.585Z,95415.44
2023-02-25T11:19:15.136Z,95350.63
2023-02-25T11:21:48.882Z,95402.31
2023-02-25T11:24:23.486Z,95394.22
2023-02-25T11:26:52.860Z,95407.53
2023-02-25T11:29:26.174Z,95414.81
2023-02-25T11:31:59.722Z,95408.91
2023-02-25T11:34:32.943Z,95404.16
2023-02-25T11:37:27.334Z,95404.44
2023-02-25T11:39:59.279Z,95390.84
2023-02-25T11:42:30.257Z,95400.00
2023-02-25T11:45:04.952Z,95418.00
2023-02-25T11:47:35.185Z,95414.06
2023-02-25T11:50:21.098Z,95382.19
2023-02-25T11:53:02.500Z,95413.13
2023-02-25T11:55:42.852Z,95377.66
2023-02-25T11:58:19.999Z,95402.06
2023-02-25T12:00:55.320Z,95378.22
2023-02-25T12:03:41.650Z,95415.53
2023-02-25T12:06:20.112Z,95416.16
2023-02-25T12:09:19.151Z,95420.47
2023-02-25T12:12:12.315Z,95399.16
2023-02-25T12:15:19.394Z,95406.63
2023-02-25T12:18:18.009Z,95402.19
2023-02-25T12:21:05.813Z,95413.81
2023-02-25T12:23:57.471Z,95411.72
2023-02-25T12:26:37.928Z,95425.06
2023-02-25T12:29:13.319Z,95411.28
2023-02-25T12:31:58.135Z,95425.78
2023-02-25T12:34:38.784Z,95341.41
2023-02-25T12:37:27.209Z,95427.41
2023-02-25T12:40:05.457Z,95431.16
2023-02-25T12:42:44.038Z,95395.13
2023-02-25T12:45:42.861Z,95439.72
2023-02-25T12:48:56.145Z,95439.44
2023-02-25T12:51:41.801Z,95422.34
2023-02-25T12:54:26.645Z,95440.81
2023-02-25T12:57:05.071Z,95437.59
2023-02-25T12:59:50.861Z,95384.88
2023-02-25T13:02:52.739Z,95457.38
2023-02-25T13:05:50.261Z,95448.47
2023-02-25T13:08:45.074Z,95432.59
2023-02-25T13:11:22.444Z,95426.91
2023-02-25T13:14:22.025Z,95431.22
2023-02-25T13:17:29.077Z,95415.66
2023-02-25T13:20:27.277Z,95417.22
2023-02-25T13:23:05.898Z,95408.78
2023-02-25T13:25:51.777Z,95397.88
2023-02-25T13:28:33.620Z,95391.81
2023-02-25T13:31:08.438Z,95384.22
2023-02-25T13:33:49.853Z,95390.69
2023-02-25T13:36:37.905Z,95357.34
2023-02-25T13:39:24.650Z,95384.09
2023-02-25T13:42:16.659Z,95389.69
2023-02-25T13:45:03.415Z,95375.25
2023-02-25T13:47:44.795Z,95360.44
2023-02-25T13:50:36.959Z,95382.59
2023-02-25T13:53:20.844Z,95379.97
2023-02-25T13:56:07.300Z,95379.72
2023-02-25T13:58:49.713Z,95362.09
2023-02-25T14:01:28.738Z,95371.84
2023-02-25T14:04:50.373Z,95361.66
2023-02-25T14:07:34.143Z,95365.50
2023-02-25T14:10:18.426Z,95359.00
2023-02-25T14:13:04.629Z,95362.81
2023-02-25T14:15:44.648Z,95360.81
2023-02-25T14:18:33.711Z,95193.72
2023-02-25T14:21:12.924Z,95336.81
2023-02-25T14:23:48.643Z,95362.50
2023-02-25T14:26:25.744Z,95373.38
2023-02-25T14:29:12.273Z,95363.94
2023-02-25T14:31:50.619Z,95358.69
2023-02-25T14:34:31.027Z,95363.69
2023-02-25T14:37:22.308Z,95372.28
2023-02-25T14:40:08.806Z,95376.25
2023-02-25T14:43:00.147Z,95376.22
2023-02-25T14:45:33.069Z,95350.72
2023-02-25T14:48:04.142Z,95374.06
2023-02-25T14:50:37.978Z,95370.22
2023-02-25T14:53:26.206Z,95371.81
2023-02-25T14:56:05.302Z,95366.03
2023-02-25T14:59:08.892Z,95365.25
2023-02-25T15:01:46.526Z,95370.31
2023-02-25T15:04:50.880Z,95369.47
2023-02-25T15:07:28.037Z,95382.09
2023-02-25T15:10:20.653Z,95389.44
2023-02-25T15:13:03.748Z,95387.84
2023-02-25T15:16:01.246Z,95392.81
2023-02-25T15:19:16.876Z,95340.81
2023-02-25T15:21:49.798Z,95387.34
2023-02-25T15:24:40.842Z,95402.81
2023-02-25T15:27:56.717Z,95411.56
2023-02-25T15:30:29.040Z,95377.84
2023-02-25T15:33:16.883Z,95413.66
2023-02-25T15:36:01.555Z,95409.44
2023-02-25T15:38:46.692Z,95397.31
2023-02-25T15:41:43.467Z,95407.81
2023-02-25T15:44:44.271Z,95403.94
2023-02-25T15:47:44.781Z,95411.28
2023-02-25T15:50:49.079Z,95416.25
2023-02-25T15:53:38.242Z,95203.91
2023-02-25T15:56:40.540Z,95426.50
2023-02-25T15:59:08.870Z,95429.13
2023-02-25T16:01:44.122Z,95450.00
2023-02-25T16:04:44.280Z,95452.44
2023-02-25T16:07:20.300Z,95508.66
2023-02-25T16:09:54.931Z,95478.97
2023-02-25T16:12:26.403Z,95479.31
2023-02-25T16:14:57.616Z,95478.59
2023-02-25T16:17:30.420Z,95477.97
2023-02-25T16:20:01.347Z,95471.81
2023-02-25T16:22:33.685Z,95471.31
2023-02-25T16:25:02.779Z,95477.16
2023-02-25T16:27:44.339Z,95482.06
2023-02-25T16:30:16.804Z,95482.25
2023-02-25T16:32:52.704Z,95490.81
2023-02-25T16:35:27.328Z,95492.19
2023-02-25T16:38:10.959Z,95496.50
2023-02-25T16:40:40.126Z,95487.28
2023-02-25T16:43:13.620Z,95509.09
2023-02-25T16:45:46.296Z,95508.84
2023-02-25T16:48:17.357Z,95518.16
2023-02-25T16:50:51.060Z,95519.75
2023-02-25T16:53:25.460Z,95497.09
2023-02-25T16:55:59.268Z,95392.63
2023-02-25T16:58:29.192Z,95532.25
2023-02-25T17:00:59.417Z,95532.03
2023-02-25T17:03:33.049Z,95541.28
2023-02-25T17:06:19.335Z,95530.25
2023-02-25T17:08:52.113Z,95552.31
2023-02-25T17:11:25.275Z,95538.09
2023-02-25T17:13:56.949Z,95530.53
2023-02-25T17:16:31.859Z,95584.81
2023-02-25T17:19:03.997Z,95544.91
2023-02-25T17:21:37.834Z,95553.72
2023-02-25T17:24:14.441Z,95552.00
2023-02-25T17:26:43.723Z,95566.50
2023-02-25T17:29:14.239Z,95528.06
2023-02-25T17:31:47.216Z,95562.72
2023-02-25T17:34:28.779Z,95584.97
2023-02-25T17:36:57.805Z,95591.41
2023-02-25T17:39:31.661Z,95610.88
2023-02-25T17:42:01.336Z,95621.31
2023-02-25T17:44:47.241Z,95584.97
2023-02-25T17:47:22.304Z,95645.66
2023-02-25T17:49:53.052Z,95647.91
2023-02-25T17:52:26.806Z,95563.63
2023-02-25T17:54:59.289Z,95604.41
2023-02-25T17:57:31.644Z,95614.88
2023-02-25T18:00:04.329Z,95659.53
2023-02-25T18:02:37.653Z,95660.16
2023-02-25T18:05:29.599Z,95658.72
2023-02-25T18:08:07.860Z,95658.41
2023-02-25T18:11:04.802Z,95665.19
2023-02-25T18:13:36.156Z,95633.78
2023-02-25T18:16:38.912Z,95664.53
2023-02-25T18:19:36.125Z,95663.53
2023-02-25T18:22:05.375Z,95660.97
2023-02-25T18:24:35.379Z,95656.84
2023-02-25T18:27:27.841Z,95668.84
2023-02-25T18:29:59.619Z,95669.44
2023-02-25T18:32:27.650Z,95626.25
2023-02-25T18:34:58.410Z,95670.19
2023-02-25T18:37:26.689Z,95668.81
2023-02-25T18:39:54.537Z,95670.31
2023-02-25T18:42:26.347Z,95654.75
2023-02-25T18:44:57.534Z,95671.38
2023-02-25T18:47:29.618Z,95673.78
2023-02-25T18:50:01.034Z,95676.31
2023-02-25T18:52:32.161Z,95675.34
2023-02-25T18:55:00.015Z,95728.28
2023-02-25T18:57:30.299Z,95685.94
2023-02-25T18:59:58.854Z,95655.50
2023-02-25T19:02:31.406Z,95685.06
2023-02-25T19:05:08.732Z,95689.91
2023-02-25T19:07:39.080Z,95683.53
2023-02-25T19:10:08.388Z,95683.63
2023-02-25T19:12:39.452Z,95675.88
2023-02-25T19:15:12.149Z,95686.50
2023-02-25T19:17:47.224Z,95647.09
2023-02-25T19:20:18.965Z,95688.69
2023-02-25T19:23:02.697Z,95698.84
2023-02-25T19:25:31.992Z,95685.13
2023-02-25T19:28:03.282Z,95689.16
2023-02-25T19:30:33.863Z,95691.75
2023-02-25T19:33:04.669Z,95641.75
2023-02-25T19:35:33.988Z,95705.31
2023-02-25T19:38:02.048Z,95703.16
2023-02-25T19:40:32.760Z,95706.09
2023-02-25T19:43:06.911Z,95664.94
2023-02-25T19:45:41.935Z,95701.19
2023-02-25T19:48:10.404Z,95661.34
2023-02-25T19:50:44.956Z,95692.69
2023-02-25T19:53:13.191Z,95707.75
2023-02-25T19:55:41.469Z,95728.38
2023-02-25T19:58:12.823Z,95737.56
2023-02-25T20:00:45.905Z,95732.88
2023-02-25T20:03:20.138Z,95725.47
2023-02-25T20:05:48.703Z,95740.81
2023-02-25T20:08:16.573Z,95776.81
2023-02-25T20:10:46.932Z,95729.13
2023-02-25T20:13:17.837Z,95745.31
2023-02-25T20:15:45.764Z,95733.13
2023-02-25T20:18:13.942Z,95756.16
2023-02-25T20:20:43.206Z,95737.38
2023-02-25T20:23:13.512Z,95753.75
2023-02-25T20:25:43.286Z,95764.94
2023-02-25T20:28:11.140Z,95745.97
2023-02-25T20:30:40.461Z,95732.63
2023-02-25T20:33:09.125Z,95750.72
2023-02-25T20:35:37.333Z,95759.59
2023-02-25T20:38:15.982Z,95773.91
2023-02-25T20:40:44.011Z,95773.72
2023-02-25T20:43:15.245Z,95741.09
2023-02-25T20:45:45.770Z,95773.38
2023-02-25T20:48:28.172Z,95739.81
2023-02-25T20:51:01.868Z,95775.13
2023-02-25T20:53:30.193Z,95786.66
2023-02-25T20:55:58.664Z,95669.66
2023-02-25T20:58:26.618Z,95799.56
2023-02-25T21:00:59.358Z,95792.84
2023-02-25T21:03:27.249Z,95796.59
2023-02-25T21:06:04.303Z,95748.63
2023-02-25T21:08:35.995Z,95799.22
2023-02-25T21:11:06.884Z,95793.88
2023-02-25T21:13:36.473Z,95809.72
2023-02-25T21:16:19.091Z,95801.84
2023-02-25T21:18:57.979Z,95797.00
2023-02-25T21:21:28.324Z,95805.41
2023-02-25T21:23:56.280Z,95795.91
2023-02-25T21:26:24.625Z,95799.38
2023-02-25T21:28:53.834Z,95794.94
2023-02-25T21:31:23.318Z,95796.53
2023-02-25T21:33:57.309Z,95808.13
2023-02-25T21:36:35.480Z,95807.06
2023-02-25T21:39:07.063Z,95819.19
2023-02-25T21:41:36.350Z,95820.78
2023-02-25T21:44:07.699Z,95525.53
2023-02-25T21:46:37.987Z,95812.91
2023-02-25T21:49:12.812Z,95763.22
2023-02-25T21:51:41.291Z,95816.75
2023-02-25T21:54:13.283Z,95819.28
2023-02-25T21:56:41.779Z,95716.91
2023-02-25T21:59:09.943Z,95823.81
2023-02-25T22:01:42.259Z,95803.72
2023-02-25T22:04:11.627Z,95803.03
2023-02-25T22:06:39.991Z,95801.56
2023-02-25T22:09:08.763Z,95823.38
2023-02-25T22:11:40.025Z,95808.84
2023-02-25T22:14:09.674Z,95809.28
2023-02-25T22:16:45.039Z,95820.25
2023-02-25T22:19:12.950Z,95820.22
2023-02-25T22:21:41.355Z,95821.50
2023-02-25T22:24:09.182Z,95814.72
2023-02-25T22:26:37.809Z,95819.28
2023-02-25T22:29:07.979Z,95822.00
2023-02-25T22:31:36.380Z,95824.59
2023-02-25T22:34:08.242Z,95818.72
2023-02-25T22:36:41.347Z,95825.31
2023-02-25T22:39:13.050Z,95825.41
2023-02-25T22:41:42.710Z,95833.59
2023-02-25T22:44:14.559Z,95806.44
2023-02-25T22:46:42.523Z,95833.28
2023-02-25T22:49:15.337Z,95830.50
2023-02-25T22:51:45.679Z,95808.09
2023-02-25T22:54:20.497Z,95836.03
2023-02-25T22:56:49.704Z,95826.97
2023-02-25T22:59:17.860Z,95831.09
2023-02-25T23:01:45.795Z,95838.25
2023-02-25T23:04:17.343Z,95837.56
2023-02-25T23:06:47.165Z,95791.34
2023-02-25T23:09:18.594Z,95838.13
2023-02-25T23:11:49.904Z,95831.59
2023-02-25T23:14:19.236Z,95830.50
2023-02-25T23:16:47.239Z,95844.69
2023-02-25T23:19:23.952Z,95844.56
2023-02-25T23:21:52.418Z,95831.19
2023-02-25T23:24:20.378Z,95853.38
2023-02-25T23:26:50.436Z,95855.59
2023-02-25T23:29:18.468Z,95836.28
2023-02-25T23:31:52.371Z,95848.06
2023-02-25T23:34:25.544Z,95846.75
2023-02-25T23:37:09.169Z,95859.47
2023-02-25T23:39:38.183Z,95860.69
2023-02-25T23:42:09.661Z,95845.94
2023-02-25T23:44:37.785Z,95832.34
2023-02-25T23:47:05.769Z,95861.06
2023-02-25T23:49:38.327Z,95858.00
2023-02-25T23:52:08.773Z,95867.91
2023-02-25T23:54:36.690Z,95865.84
2023-02-25T23:57:04.737Z,95870.59
2023-02-25T23:59:34.248Z,95859.72
